Homer, Indiana
Current Conditions -  °F | °C
As of 6:53 AM on Thursday 29 Jan 2015 (Local Time) from KGEZ Reporting Station
Scattered Clouds Scattered Clouds  
Wind Chill: 31°   Ceiling: Unl
Heat Index: 39°   Visibility: 10mi
Dew Point: 29°   Wind: 15mph
Humidity: 67%   Direction: 180°S
Pressure: 29.8"   Gusts: NA
Location:  39.58°N, 85.58°W
Report Text: KGEZ 291153Z AUTO 18013KT 10SM SCT120 04/M02 A2980 RMK AO2 SLP097 60000 T00391017 10044 20017 56030
Loading
Personal Weather Stations






























Interactive Weather Map New forecast layout! Learn more

10-Day Weather Forecast

Advertisements
Track Severe Weather on mobile